Horam, United Kingdom
Current Conditions -  °F | °C
As of 7:50 AM on Sunday 26 Oct 2014 (Local Time) from EGKK Reporting Station
Broken Clouds Broken Clouds  
Wind Chill: 55°   Ceiling: 3000
Heat Index: 55°   Visibility: 6mi
Dew Point: 48°   Wind: 5mph
Humidity: 77%   Direction: 170°S
Pressure: 30.15"   Gusts: NA
Location:  50.94°N, 0.24°E
Report Text: EGKK 260650Z 17004KT 9999 BKN030 13/09 Q1021
Loading
Personal Weather Stations






























Interactive Weather Map
Tropical Storm Tracking
New forecast layout! Learn more

10-Day Weather Forecast

Advertisements
Track Severe Weather on mobile